createdAt,value
2018-09-02T00:00:05.202Z,89.83
2018-09-02T00:01:02.668Z,90.21
2018-09-02T00:02:07.107Z,90.12
2018-09-02T00:03:02.639Z,89.92
2018-09-02T00:04:07.295Z,90.21
2018-09-02T00:05:02.663Z,89.54
2018-09-02T00:06:02.683Z,89.73
2018-09-02T00:07:03.091Z,89.54
2018-09-02T00:08:02.656Z,89.73
2018-09-02T00:09:02.537Z,89.44
2018-09-02T00:10:03.285Z,89.73
2018-09-02T00:11:02.619Z,89.44
2018-09-02T00:12:02.615Z,89.64
2018-09-02T00:13:04.292Z,89.73
2018-09-02T00:14:02.380Z,89.64
2018-09-02T00:15:02.462Z,89.54
2018-09-02T00:16:02.699Z,89.44
2018-09-02T00:17:02.587Z,89.44
2018-09-02T00:18:02.380Z,89.64
2018-09-02T00:19:02.598Z,89.44
2018-09-02T00:20:02.442Z,89.44
2018-09-02T00:21:02.932Z,89.06
2018-09-02T00:22:02.521Z,89.44
2018-09-02T00:23:03.310Z,89.35
2018-09-02T00:24:03.143Z,88.96
2018-09-02T00:25:02.430Z,89.83
2018-09-02T00:26:02.524Z,89.64
2018-09-02T00:27:05.128Z,89.64
2018-09-02T00:28:02.410Z,89.06
2018-09-02T00:29:02.247Z,89.50
2018-09-02T00:30:02.480Z,89.30
2018-09-02T00:31:03.347Z,89.25
2018-09-02T00:32:02.224Z,88.87
2018-09-02T00:33:02.425Z,88.92
2018-09-02T00:34:04.332Z,89.30
2018-09-02T00:35:02.391Z,89.30
2018-09-02T00:36:04.194Z,89.30
2018-09-02T00:37:07.144Z,89.59
2018-09-02T00:38:02.425Z,89.59
2018-09-02T00:39:02.188Z,89.01
2018-09-02T00:40:02.368Z,89.21
2018-09-02T00:41:03.286Z,88.82
2018-09-02T00:42:03.121Z,88.73
2018-09-02T00:43:02.284Z,89.06
2018-09-02T00:44:02.255Z,89.01
2018-09-02T00:45:02.221Z,88.73
2018-09-02T00:46:02.288Z,88.92
2018-09-02T00:47:02.310Z,88.53
2018-09-02T00:48:02.506Z,88.63
2018-09-02T00:49:03.639Z,89.01
2018-09-02T00:50:02.191Z,88.92
2018-09-02T00:51:02.930Z,89.01
2018-09-02T00:52:02.243Z,88.44
2018-09-02T00:53:03.548Z,88.53
2018-09-02T00:54:02.276Z,88.06
2018-09-02T00:55:06.736Z,87.96
2018-09-02T00:56:02.298Z,88.24
2018-09-02T00:57:02.189Z,88.06
2018-09-02T00:58:04.835Z,87.86
2018-09-02T00:59:03.630Z,88.06
2018-09-02T01:00:04.792Z,88.06
2018-09-02T01:01:03.908Z,88.15
2018-09-02T01:02:04.805Z,87.96
2018-09-02T01:03:06.788Z,88.15
2018-09-02T01:04:02.744Z,87.96
2018-09-02T01:05:02.146Z,88.06
2018-09-02T01:06:03.784Z,87.82
2018-09-02T01:07:06.710Z,88.01
2018-09-02T01:08:02.395Z,88.10
2018-09-02T01:09:16.732Z,88.01
2018-09-02T01:10:02.007Z,88.01
2018-09-02T01:11:06.754Z,87.82
2018-09-02T01:12:02.714Z,87.82
2018-09-02T01:13:02.037Z,88.10
2018-09-02T01:14:02.686Z,87.92
2018-09-02T01:15:06.815Z,88.10
2018-09-02T01:16:11.059Z,87.82
2018-09-02T01:17:01.960Z,87.92
2018-09-02T01:18:02.785Z,87.82
2018-09-02T01:19:04.608Z,88.06
2018-09-02T01:20:04.871Z,87.96
2018-09-02T01:21:02.035Z,88.06
2018-09-02T01:22:01.823Z,87.87
2018-09-02T01:23:04.976Z,88.06
2018-09-02T01:24:01.914Z,88.06
2018-09-02T01:25:02.656Z,87.77
2018-09-02T01:26:01.898Z,87.77
2018-09-02T01:27:01.883Z,88.06
2018-09-02T01:28:01.856Z,88.01
2018-09-02T01:29:01.852Z,88.06
2018-09-02T01:30:02.724Z,87.92
2018-09-02T01:31:01.922Z,88.01
2018-09-02T01:32:01.735Z,88.06
2018-09-02T01:33:02.267Z,88.06
2018-09-02T01:34:01.886Z,87.96
2018-09-02T01:36:24.010Z,87.68
2018-09-02T01:37:22.831Z,88.54
2018-09-02T01:39:28.717Z,88.64
2018-09-02T01:40:17.567Z,88.45
2018-09-02T01:41:16.144Z,88.25
2018-09-02T01:43:39.120Z,88.45
2018-09-02T01:45:51.043Z,88.73
2018-09-02T01:46:51.065Z,88.25
2018-09-02T01:47:50.816Z,88.25
2018-09-02T01:48:51.482Z,88.64
2018-09-02T01:49:51.013Z,88.73
2018-09-02T01:50:51.579Z,88.64
2018-09-02T01:51:52.449Z,88.54
2018-09-02T01:52:52.469Z,88.35
2018-09-02T01:53:50.849Z,88.64
2018-09-02T01:54:52.559Z,88.64
2018-09-02T01:55:50.917Z,88.45
2018-09-02T01:56:51.553Z,88.54
2018-09-02T01:57:50.845Z,88.64
2018-09-02T01:58:57.493Z,88.64
2018-09-02T01:59:50.704Z,88.54
2018-09-02T02:00:50.736Z,88.93
2018-09-02T02:01:51.402Z,88.64
2018-09-02T02:02:50.708Z,88.73
2018-09-02T02:03:50.886Z,88.87
2018-09-02T02:04:50.751Z,88.49
2018-09-02T02:05:51.464Z,88.59
2018-09-02T02:06:50.739Z,88.59
2018-09-02T02:07:53.426Z,88.39
2018-09-02T02:08:50.822Z,88.30
2018-09-02T02:10:11.854Z,88.49
2018-09-02T02:10:50.593Z,88.59
2018-09-02T02:11:50.688Z,88.39
2018-09-02T02:12:52.565Z,88.49
2018-09-02T02:13:50.589Z,88.68
2018-09-02T02:14:50.676Z,88.10
2018-09-02T02:15:50.614Z,87.82
2018-09-02T02:16:55.565Z,87.92
2018-09-02T02:17:50.875Z,88.01
2018-09-02T02:18:59.145Z,88.10
2018-09-02T02:20:44.593Z,87.82
2018-09-02T02:21:43.988Z,88.01
2018-09-02T02:22:43.932Z,88.10
2018-09-02T02:23:44.093Z,87.92
2018-09-02T02:24:43.969Z,88.20
2018-09-02T02:25:44.603Z,88.01
2018-09-02T02:26:44.122Z,87.53
2018-09-02T02:27:45.623Z,87.53
2018-09-02T02:28:52.616Z,87.43
2018-09-02T02:30:44.736Z,87.72
2018-09-02T02:32:51.833Z,87.62
2018-09-02T02:33:50.928Z,87.62
2018-09-02T02:35:11.952Z,88.10
2018-09-02T02:36:50.906Z,87.82
2018-09-02T02:37:50.893Z,87.49
2018-09-02T02:38:50.997Z,88.01
2018-09-02T02:39:50.779Z,88.01
2018-09-02T02:40:50.973Z,88.01
2018-09-02T02:43:13.829Z,87.62
2018-09-02T02:44:11.872Z,88.10
2018-09-02T02:46:20.603Z,88.10
2018-09-02T02:47:08.610Z,88.10
2018-09-02T02:49:00.499Z,87.43
2018-09-02T02:50:00.269Z,87.53
2018-09-02T02:51:54.166Z,87.82
2018-09-02T02:52:55.869Z,87.53
2018-09-02T02:53:54.308Z,87.39
2018-09-02T02:54:53.708Z,88.01
2018-09-02T02:55:54.223Z,88.01
2018-09-02T02:56:53.687Z,88.30
2018-09-02T02:57:53.713Z,87.72
2018-09-02T02:58:54.152Z,87.58
2018-09-02T02:59:54.129Z,87.82
2018-09-02T03:00:53.731Z,87.68
2018-09-02T03:01:55.377Z,87.82
2018-09-02T03:02:55.182Z,87.92
2018-09-02T03:03:53.632Z,87.53
2018-09-02T03:04:54.337Z,87.82
2018-09-02T03:05:54.293Z,87.62
2018-09-02T03:06:53.632Z,87.62
2018-09-02T03:08:04.208Z,87.62
2018-09-02T03:08:53.533Z,87.82
2018-09-02T03:09:53.612Z,87.72
2018-09-02T03:10:53.515Z,87.82
2018-09-02T03:11:53.566Z,87.82
2018-09-02T03:12:53.444Z,87.72
2018-09-02T03:13:53.636Z,87.15
2018-09-02T03:14:53.415Z,87.34
2018-09-02T03:15:54.377Z,87.43
2018-09-02T03:16:55.303Z,87.82
2018-09-02T03:17:53.570Z,87.82
2018-09-02T03:18:53.473Z,87.62
2018-09-02T03:19:54.302Z,87.43
2018-09-02T03:20:53.603Z,87.53
2018-09-02T03:21:53.242Z,87.53
2018-09-02T03:22:53.615Z,87.67
2018-09-02T03:23:53.359Z,87.48
2018-09-02T03:24:53.424Z,87.15
2018-09-02T03:25:55.241Z,87.05
2018-09-02T03:26:54.089Z,87.09
2018-09-02T03:27:56.293Z,86.95
2018-09-02T03:28:53.566Z,86.99
2018-09-02T03:29:53.537Z,87.34
2018-09-02T03:31:56.197Z,87.53
2018-09-02T03:32:53.177Z,87.43
2018-09-02T03:33:53.215Z,87.43
2018-09-02T03:34:53.316Z,87.62
2018-09-02T03:35:53.320Z,87.43
2018-09-02T03:36:53.315Z,87.57
2018-09-02T03:37:53.306Z,87.09
2018-09-02T03:38:53.382Z,87.48
2018-09-02T03:39:53.340Z,86.99
2018-09-02T03:41:14.384Z,87.09
2018-09-02T03:41:53.352Z,87.05
2018-09-02T03:42:53.375Z,86.90
2018-09-02T03:43:53.676Z,87.09
2018-09-02T03:44:53.212Z,86.90
2018-09-02T03:45:53.281Z,87.05
2018-09-02T03:48:14.343Z,87.19
2018-09-02T03:49:14.154Z,86.90
2018-09-02T03:51:10.712Z,87.29
2018-09-02T03:52:10.764Z,87.48
2018-09-02T03:53:10.599Z,87.29
2018-09-02T03:54:10.747Z,86.80
2018-09-02T03:55:10.862Z,86.90
2018-09-02T03:56:10.726Z,87.19
2018-09-02T03:57:10.660Z,87.19
2018-09-02T03:58:10.724Z,86.99
2018-09-02T03:59:10.766Z,87.09
2018-09-02T04:00:10.647Z,86.99
2018-09-02T04:01:10.691Z,86.90
2018-09-02T04:02:12.571Z,86.99
2018-09-02T04:03:10.749Z,86.61
2018-09-02T04:04:10.708Z,86.52
2018-09-02T04:05:10.621Z,86.80
2018-09-02T04:06:10.751Z,86.99
2018-09-02T04:07:10.713Z,86.80
2018-09-02T04:08:13.138Z,86.52
2018-09-02T04:09:10.609Z,86.80
2018-09-02T04:10:10.874Z,86.80
2018-09-02T04:11:10.496Z,86.61
2018-09-02T04:12:10.512Z,85.98
2018-09-02T04:13:10.436Z,86.27
2018-09-02T04:14:10.604Z,85.88
2018-09-02T04:15:10.579Z,86.08
2018-09-02T04:16:10.504Z,86.08
2018-09-02T04:17:10.533Z,86.27
2018-09-02T04:18:10.398Z,86.08
2018-09-02T04:19:10.592Z,85.50
2018-09-02T04:20:10.446Z,85.78
2018-09-02T04:21:10.517Z,85.50
2018-09-02T04:22:10.526Z,86.02
2018-09-02T04:23:10.440Z,86.02
2018-09-02T04:24:10.562Z,86.02
2018-09-02T04:25:10.410Z,85.35
2018-09-02T04:26:10.499Z,85.44
2018-09-02T04:27:10.425Z,85.25
2018-09-02T04:28:10.450Z,85.44
2018-09-02T04:29:10.317Z,84.97
2018-09-02T04:30:10.419Z,84.48
2018-09-02T04:31:10.309Z,84.87
2018-09-02T04:32:10.350Z,84.39
2018-09-02T04:34:10.349Z,84.67
2018-09-02T04:35:10.597Z,84.58
2018-09-02T04:36:10.320Z,84.29
2018-09-02T04:37:10.247Z,84.53
2018-09-02T04:38:10.374Z,85.00
2018-09-02T04:39:10.220Z,84.62
2018-09-02T04:40:10.194Z,84.29
2018-09-02T04:41:10.212Z,84.39
2018-09-02T04:42:12.357Z,84.58
2018-09-02T04:43:10.241Z,85.25
2018-09-02T04:44:10.513Z,85.16
2018-09-02T04:45:10.345Z,84.97
2018-09-02T04:46:10.548Z,85.25
2018-09-02T04:47:10.411Z,85.06
2018-09-02T04:48:10.257Z,85.44
2018-09-02T04:49:10.306Z,85.44
2018-09-02T04:50:10.171Z,86.02
2018-09-02T04:51:10.275Z,85.64
2018-09-02T04:52:10.253Z,86.02
2018-09-02T04:53:10.445Z,85.25
2018-09-02T04:54:10.094Z,85.44
2018-09-02T04:55:10.178Z,85.16
2018-09-02T04:56:10.211Z,85.25
2018-09-02T04:57:10.296Z,85.25
2018-09-02T04:58:10.240Z,84.62
2018-09-02T04:59:10.141Z,84.81
2018-09-02T05:01:10.110Z,84.43
2018-09-02T05:02:10.295Z,84.14
2018-09-02T05:03:10.236Z,84.18
2018-09-02T05:04:10.137Z,83.31
2018-09-02T05:05:10.102Z,83.51
2018-09-02T05:06:10.035Z,83.80
2018-09-02T05:07:17.874Z,84.28
2018-09-02T05:09:04.115Z,83.75
2018-09-02T05:10:03.661Z,83.70
2018-09-02T05:11:59.901Z,83.70
2018-09-02T05:12:57.190Z,83.56
2018-09-02T05:13:57.179Z,83.80
2018-09-02T05:14:58.899Z,83.31
2018-09-02T05:15:57.172Z,83.22
2018-09-02T05:16:57.087Z,83.31
2018-09-02T05:17:57.243Z,83.22
2018-09-02T05:18:57.158Z,83.51
2018-09-02T05:19:57.093Z,83.03
2018-09-02T05:20:56.971Z,83.31
2018-09-02T05:21:57.099Z,83.03
2018-09-02T05:22:57.021Z,82.35
2018-09-02T05:23:58.853Z,82.83
2018-09-02T05:24:57.035Z,82.93
2018-09-02T05:25:56.977Z,82.54
2018-09-02T05:26:57.151Z,81.96
2018-09-02T05:27:57.137Z,82.83
2018-09-02T05:28:57.222Z,82.74
2018-09-02T05:29:56.967Z,82.45
2018-09-02T05:30:57.134Z,80.91
2018-09-02T05:31:58.916Z,81.68
2018-09-02T05:33:03.868Z,81.62
2018-09-02T05:33:56.868Z,80.76
2018-09-02T05:34:57.112Z,81.48
2018-09-02T05:35:56.935Z,81.43
2018-09-02T05:36:57.956Z,81.24
2018-09-02T05:37:59.642Z,81.33
2018-09-02T05:38:57.321Z,81.52
2018-09-02T05:39:56.895Z,81.72
2018-09-02T05:40:56.903Z,82.01
2018-09-02T05:41:57.409Z,81.33
2018-09-02T05:42:56.896Z,81.33
2018-09-02T05:43:56.926Z,82.01
2018-09-02T05:44:56.971Z,80.85
2018-09-02T05:45:56.809Z,80.18
2018-09-02T05:46:56.767Z,80.46
2018-09-02T05:47:56.861Z,79.79
2018-09-02T05:48:56.973Z,80.18
2018-09-02T05:52:19.028Z,81.24
2018-09-02T05:53:19.673Z,80.85
2018-09-02T05:54:19.890Z,80.66
2018-09-02T05:55:20.581Z,80.56
2018-09-02T05:56:21.536Z,80.66
2018-09-02T05:57:18.967Z,80.94
2018-09-02T05:58:19.103Z,81.33
2018-09-02T05:59:19.009Z,80.76
2018-09-02T06:00:19.076Z,79.64
2018-09-02T06:01:18.732Z,79.83
2018-09-02T06:02:19.095Z,80.22
2018-09-02T06:03:19.588Z,80.31
2018-09-02T06:04:19.506Z,79.93
2018-09-02T06:05:20.556Z,80.31
2018-09-02T06:06:23.511Z,80.22
2018-09-02T06:07:18.912Z,80.12
2018-09-02T06:08:21.447Z,80.22
2018-09-02T06:09:19.479Z,80.51
2018-09-02T06:10:18.898Z,79.93
2018-09-02T06:11:18.959Z,79.64
2018-09-02T06:12:28.150Z,80.02
2018-09-02T06:14:30.871Z,79.54
2018-09-02T06:15:12.106Z,79.35
2018-09-02T06:16:12.721Z,79.68
2018-09-02T06:17:13.829Z,79.77
2018-09-02T06:18:13.907Z,79.19
2018-09-02T06:19:12.285Z,77.26
2018-09-02T06:20:22.891Z,77.94
2018-09-02T06:21:12.308Z,76.40
2018-09-02T06:22:12.146Z,77.55
2018-09-02T06:24:12.128Z,76.53
2018-09-02T06:25:12.000Z,76.53
2018-09-02T06:26:12.177Z,75.57
2018-09-02T06:27:11.990Z,74.79
2018-09-02T06:28:12.053Z,75.95
2018-09-02T06:29:13.795Z,74.41
2018-09-02T06:30:11.924Z,74.41
2018-09-02T06:31:12.021Z,75.57
2018-09-02T06:32:13.800Z,74.44
2018-09-02T06:33:12.142Z,74.73
2018-09-02T06:34:12.154Z,75.02
2018-09-02T06:35:11.847Z,73.28
2018-09-02T06:36:13.962Z,74.44
2018-09-02T06:37:12.024Z,74.83
2018-09-02T06:38:11.956Z,74.16
2018-09-02T06:39:12.135Z,74.73
2018-09-02T06:40:11.872Z,73.67
2018-09-02T06:41:12.598Z,73.58
2018-09-02T06:42:12.148Z,74.10
2018-09-02T06:43:12.098Z,72.84
2018-09-02T06:44:12.033Z,72.36
2018-09-02T06:45:13.968Z,73.61
2018-09-02T06:46:13.930Z,72.45
2018-09-02T06:47:11.986Z,71.88
2018-09-02T06:48:12.019Z,72.45
2018-09-02T06:49:11.997Z,73.22
2018-09-02T06:51:12.003Z,73.01
2018-09-02T06:52:11.909Z,72.81
2018-09-02T06:53:11.994Z,72.42
2018-09-02T06:54:12.065Z,70.78
2018-09-02T06:55:11.879Z,71.75
2018-09-02T06:56:12.065Z,70.40
2018-09-02T06:57:11.839Z,71.56
2018-09-02T06:58:11.963Z,70.98
2018-09-02T06:59:11.988Z,69.72
2018-09-02T07:00:11.856Z,70.40
2018-09-02T07:01:11.916Z,70.43
2018-09-02T07:02:11.920Z,70.62
2018-09-02T07:03:11.751Z,68.98
2018-09-02T07:04:11.873Z,70.24
2018-09-02T07:05:13.047Z,69.95
2018-09-02T07:08:53.034Z,69.14
2018-09-02T07:09:31.670Z,68.95
2018-09-02T07:11:25.082Z,70.40
2018-09-02T07:12:25.044Z,70.78
2018-09-02T07:14:28.015Z,70.78
2018-09-02T07:15:20.960Z,70.14
2018-09-02T07:17:18.393Z,70.04
2018-09-02T07:21:06.862Z,68.69
2018-09-02T07:21:55.935Z,68.40
2018-09-02T07:23:49.324Z,67.56
2018-09-02T07:24:49.317Z,68.08
2018-09-02T07:25:50.353Z,68.08
2018-09-02T07:26:49.284Z,68.47
2018-09-02T07:27:50.165Z,67.63
2018-09-02T07:28:49.266Z,67.37
2018-09-02T07:29:49.155Z,66.99
2018-09-02T07:30:51.760Z,66.11
2018-09-02T07:31:49.173Z,65.27
2018-09-02T07:32:49.302Z,65.37
2018-09-02T07:33:49.883Z,63.13
2018-09-02T07:34:53.807Z,62.95
2018-09-02T07:36:11.742Z,63.17
2018-09-02T07:36:49.319Z,62.98
2018-09-02T07:37:53.667Z,62.98
2018-09-02T07:38:53.838Z,63.01
2018-09-02T07:39:49.201Z,62.52
2018-09-02T07:40:51.723Z,61.09
2018-09-02T07:42:10.214Z,60.02
2018-09-02T07:42:49.308Z,60.47
2018-09-02T07:44:49.243Z,58.97
2018-09-02T07:45:51.339Z,55.60
2018-09-02T07:46:50.667Z,56.50
2018-09-02T07:47:50.773Z,55.69
2018-09-02T07:48:49.285Z,56.18
2018-09-02T07:52:10.814Z,57.45
2018-09-02T07:53:10.315Z,57.54
2018-09-02T07:54:11.828Z,57.45
2018-09-02T07:55:20.682Z,57.74
2018-09-02T07:56:10.341Z,58.03
2018-09-02T07:57:10.332Z,57.84
2018-09-02T07:58:31.827Z,57.74
2018-09-02T07:59:10.856Z,56.86
2018-09-02T08:00:20.850Z,56.96
2018-09-02T08:01:10.260Z,56.40
2018-09-02T08:02:11.590Z,56.40
2018-09-02T08:03:10.250Z,55.91
2018-09-02T08:04:16.846Z,55.43
2018-09-02T08:05:11.821Z,54.48
2018-09-02T08:06:11.696Z,54.19
2018-09-02T08:07:12.865Z,53.73
2018-09-02T08:08:31.182Z,53.27
2018-09-02T08:09:11.287Z,52.00
2018-09-02T08:14:59.788Z,42.72
2018-09-02T08:16:44.659Z,38.09
2018-09-02T08:17:22.080Z,36.40
2018-09-02T08:19:31.579Z,32.95
2018-09-02T08:20:27.162Z,32.68
2018-09-02T08:22:23.655Z,33.73
2018-09-02T08:23:19.979Z,34.63
2018-09-02T08:26:13.422Z,28.98
2018-09-02T08:27:13.495Z,28.42
2018-09-02T08:29:13.403Z,26.97
2018-09-02T08:30:13.439Z,26.92
2018-09-02T08:31:15.120Z,26.34
2018-09-02T08:32:14.484Z,24.68
2018-09-02T08:33:19.926Z,24.52
2018-09-02T08:34:13.516Z,25.60
2018-09-02T08:35:13.394Z,25.95
2018-09-02T08:36:13.567Z,26.58
2018-09-02T08:37:13.910Z,27.94
2018-09-02T08:40:34.556Z,31.10
2018-09-02T08:41:15.434Z,31.74
2018-09-02T08:42:13.539Z,32.42
2018-09-02T08:43:16.032Z,32.39
2018-09-02T08:44:15.471Z,33.04
2018-09-02T08:45:13.529Z,33.31
2018-09-02T08:47:48.171Z,34.54
2018-09-02T08:48:34.084Z,34.92
2018-09-02T08:51:31.953Z,36.15
2018-09-02T08:52:53.533Z,36.91
2018-09-02T08:57:19.764Z,37.78
2018-09-02T08:59:38.661Z,37.21
2018-09-02T09:06:33.659Z,39.01
2018-09-02T09:08:48.907Z,40.45
2018-09-02T09:11:39.939Z,41.31
2018-09-02T09:13:43.961Z,42.27
2018-09-02T09:14:34.850Z,42.64
2018-09-02T09:15:33.346Z,42.61
2018-09-02T09:18:30.696Z,42.99
2018-09-02T09:21:19.574Z,43.96
2018-09-02T09:23:37.878Z,44.82
2018-09-02T09:24:30.673Z,45.12
2018-09-02T09:26:45.116Z,45.51
2018-09-02T09:27:25.644Z,45.87
2018-09-02T09:28:24.747Z,45.78
2018-09-02T09:29:24.101Z,45.97
2018-09-02T09:30:24.067Z,46.14
2018-09-02T09:34:33.071Z,46.73
2018-09-02T09:35:21.540Z,47.19
2018-09-02T09:39:05.349Z,47.56
2018-09-02T09:39:47.263Z,48.05
2018-09-02T09:41:40.560Z,48.14
2018-09-02T09:42:40.631Z,49.02
2018-09-02T09:43:40.619Z,49.19
2018-09-02T09:46:21.737Z,50.02
2018-09-02T09:47:13.750Z,50.31
2018-09-02T09:50:14.717Z,51.72
2018-09-02T09:51:13.734Z,52.11
2018-09-02T09:53:35.313Z,52.86
2018-09-02T09:54:34.567Z,54.00
2018-09-02T09:56:34.684Z,55.04
2018-09-02T09:57:34.602Z,55.14
2018-09-02T09:58:35.244Z,55.24
2018-09-02T09:59:34.821Z,55.31
2018-09-02T10:00:34.801Z,55.50
2018-09-02T10:01:34.473Z,55.69
2018-09-02T10:02:55.443Z,55.69
2018-09-02T10:03:34.793Z,55.99
2018-09-02T10:04:34.552Z,55.99
2018-09-02T10:05:34.564Z,55.99
2018-09-02T10:06:34.681Z,56.09
2018-09-02T10:07:35.180Z,56.09
2018-09-02T10:08:34.629Z,56.09
2018-09-02T10:09:35.209Z,55.89
2018-09-02T10:10:43.328Z,55.89
2018-09-02T10:12:28.719Z,55.89
2018-09-02T10:13:35.239Z,55.73
2018-09-02T10:14:28.185Z,56.28
2018-09-02T10:15:30.491Z,56.47
2018-09-02T10:16:28.119Z,56.37
2018-09-02T10:17:30.117Z,56.11
2018-09-02T10:18:30.126Z,55.92
2018-09-02T10:19:38.802Z,56.11
2018-09-02T10:20:31.177Z,55.82
2018-09-02T10:21:28.625Z,55.92
2018-09-02T10:22:28.002Z,56.01
2018-09-02T10:23:28.038Z,56.43
2018-09-02T10:24:29.039Z,56.14
2018-09-02T10:26:29.219Z,55.85
2018-09-02T10:27:42.602Z,55.19
2018-09-02T10:29:38.625Z,54.83
2018-09-02T10:30:28.019Z,54.83
2018-09-02T10:31:28.713Z,54.28
2018-09-02T10:32:49.680Z,54.21
2018-09-02T10:33:32.507Z,52.75
2018-09-02T10:34:28.213Z,50.73
2018-09-02T10:35:30.245Z,45.41
2018-09-02T10:39:03.746Z,35.97
2018-09-02T10:39:28.154Z,32.48
2018-09-02T10:40:33.636Z,31.71
2018-09-02T10:44:01.310Z,33.27
2018-09-02T10:46:00.282Z,32.56
2018-09-02T10:47:10.207Z,31.82
2018-09-02T10:48:10.302Z,33.36
2018-09-02T10:53:05.989Z,37.22
2018-09-02T10:58:14.712Z,36.88
2018-09-02T10:59:14.760Z,35.91
2018-09-02T11:00:39.221Z,35.04
2018-09-02T11:01:29.325Z,34.55
2018-09-02T11:02:23.234Z,34.05
2018-09-02T11:06:31.906Z,33.01
2018-09-02T11:09:14.247Z,33.46
2018-09-02T11:16:19.835Z,37.28
2018-09-02T11:17:16.574Z,37.38
2018-09-02T11:18:19.451Z,35.91
2018-09-02T11:21:19.457Z,28.05
2018-09-02T11:22:17.051Z,26.59
2018-09-02T11:23:16.561Z,25.15
2018-09-02T11:24:16.573Z,23.07
2018-09-02T11:25:16.569Z,24.07
2018-09-02T11:27:17.311Z,23.27
2018-09-02T11:28:16.611Z,24.62
2018-09-02T11:29:16.503Z,25.89
2018-09-02T11:30:16.554Z,26.54
2018-09-02T11:31:16.545Z,26.70
2018-09-02T11:33:17.082Z,27.92
2018-09-02T11:34:18.960Z,28.49
2018-09-02T11:35:17.684Z,29.14
2018-09-02T11:37:16.656Z,30.87
2018-09-02T11:38:16.619Z,31.71
2018-09-02T11:39:16.659Z,32.95
2018-09-02T11:41:16.645Z,34.74
2018-09-02T11:42:16.646Z,36.26
2018-09-02T11:44:16.632Z,37.88
2018-09-02T11:49:17.083Z,41.96
2018-09-02T11:50:17.352Z,41.93
2018-09-02T11:51:16.650Z,42.32
2018-09-02T11:52:16.636Z,42.60
2018-09-02T11:53:16.639Z,43.26
2018-09-02T11:55:16.637Z,44.41
2018-09-02T11:58:19.285Z,46.22
2018-09-02T11:59:16.598Z,46.78
2018-09-02T12:00:16.613Z,47.17
2018-09-02T12:01:17.119Z,48.22
2018-09-02T12:03:19.328Z,49.17
2018-09-02T12:04:18.393Z,49.17
2018-09-02T12:05:16.598Z,49.76
2018-09-02T12:06:17.088Z,50.41
2018-09-02T12:07:17.591Z,50.31
2018-09-02T12:08:16.549Z,50.12
2018-09-02T12:09:16.606Z,49.73
2018-09-02T12:11:16.452Z,49.95
2018-09-02T12:12:19.360Z,50.34
2018-09-02T12:14:18.369Z,50.51
2018-09-02T12:15:16.454Z,50.99
2018-09-02T12:16:16.528Z,51.09
2018-09-02T12:17:16.567Z,51.58
2018-09-02T12:18:16.444Z,51.84
2018-09-02T12:19:17.060Z,51.84
2018-09-02T12:20:16.531Z,52.14
2018-09-02T12:22:16.526Z,52.23
2018-09-02T12:23:16.987Z,52.23
2018-09-02T12:25:16.536Z,51.94
2018-09-02T12:27:16.451Z,52.23
2018-09-02T12:28:16.484Z,52.59
2018-09-02T12:29:18.924Z,53.08
2018-09-02T12:30:20.437Z,53.28
2018-09-02T12:31:16.401Z,53.38
2018-09-02T12:32:16.420Z,53.28
2018-09-02T12:33:16.399Z,53.08
2018-09-02T12:34:16.307Z,53.18
2018-09-02T12:35:16.403Z,53.28
2018-09-02T12:36:16.336Z,53.28
2018-09-02T12:37:18.295Z,53.38
2018-09-02T12:38:18.450Z,53.47
2018-09-02T12:39:16.410Z,53.47
2018-09-02T12:40:16.356Z,53.67
2018-09-02T12:41:16.400Z,53.08
2018-09-02T12:42:16.978Z,53.01
2018-09-02T12:44:16.434Z,52.62
2018-09-02T12:45:17.344Z,52.75
2018-09-02T12:46:18.464Z,52.75
2018-09-02T12:47:18.482Z,52.55
2018-09-02T12:48:16.322Z,52.45
2018-09-02T12:49:16.437Z,52.55
2018-09-02T12:51:16.406Z,52.75
2018-09-02T12:54:17.391Z,53.14
2018-09-02T12:55:16.406Z,52.94
2018-09-02T12:56:16.373Z,52.75
2018-09-02T12:57:16.277Z,52.45
2018-09-02T12:58:16.363Z,52.75
2018-09-02T12:59:16.299Z,52.84
2018-09-02T13:00:18.951Z,53.14
2018-09-02T13:01:16.337Z,53.04
2018-09-02T13:02:18.073Z,52.84
2018-09-02T13:04:16.168Z,52.65
2018-09-02T13:08:16.317Z,52.94
2018-09-02T13:09:16.241Z,52.84
2018-09-02T13:11:16.307Z,53.06
2018-09-02T13:12:16.257Z,53.16
2018-09-02T13:13:16.256Z,52.94
2018-09-02T13:14:19.329Z,52.97
2018-09-02T13:15:16.274Z,52.77
2018-09-02T13:16:16.736Z,53.06
2018-09-02T13:17:16.754Z,53.06
2018-09-02T13:18:16.286Z,52.48
2018-09-02T13:19:16.226Z,52.09
2018-09-02T13:21:16.187Z,52.28
2018-09-02T13:22:17.195Z,52.28
2018-09-02T13:23:17.958Z,51.99
2018-09-02T13:24:16.153Z,52.09
2018-09-02T13:25:16.264Z,52.48
2018-09-02T13:26:16.265Z,52.58
2018-09-02T13:27:17.144Z,53.06
2018-09-02T13:28:16.415Z,52.77
2018-09-02T13:29:16.237Z,53.06
2018-09-02T13:31:18.849Z,52.87
2018-09-02T13:32:18.431Z,52.58
2018-09-02T13:33:17.950Z,52.87
2018-09-02T13:34:16.212Z,53.06
2018-09-02T13:36:16.194Z,52.75
2018-09-02T13:39:28.839Z,53.23
2018-09-02T13:40:17.954Z,53.69
2018-09-02T13:41:18.465Z,53.40
2018-09-02T13:45:17.943Z,53.99
2018-09-02T13:46:16.172Z,53.99
2018-09-02T13:48:16.013Z,53.99
2018-09-02T13:49:16.104Z,54.08
2018-09-02T13:52:16.016Z,53.81
2018-09-02T13:53:16.651Z,54.01
2018-09-02T13:54:17.976Z,53.42
2018-09-02T13:55:16.154Z,53.65
2018-09-02T13:57:18.945Z,53.16
2018-09-02T13:58:17.110Z,53.16
2018-09-02T13:59:24.549Z,52.87
2018-09-02T14:01:20.511Z,53.16
2018-09-02T14:02:09.518Z,52.97
2018-09-02T14:04:12.947Z,53.06
2018-09-02T14:07:18.365Z,53.26
2018-09-02T14:07:56.294Z,53.62
2018-09-02T14:12:44.040Z,53.06
2018-09-02T14:15:37.415Z,53.26
2018-09-02T14:16:36.322Z,53.06
2018-09-02T14:21:31.767Z,53.36
2018-09-02T14:22:34.811Z,53.26
2018-09-02T14:24:30.755Z,53.65
2018-09-02T14:25:51.816Z,53.45
2018-09-02T14:27:30.909Z,53.16
2018-09-02T14:28:30.347Z,53.26
2018-09-02T14:31:24.434Z,53.06
2018-09-02T14:32:56.821Z,53.16
2018-09-02T14:34:04.660Z,53.19
2018-09-02T14:36:13.027Z,53.28
2018-09-02T14:38:10.027Z,52.83
2018-09-02T14:38:43.041Z,52.73
2018-09-02T14:40:46.957Z,52.63
2018-09-02T14:41:35.903Z,51.53
2018-09-02T14:43:29.332Z,50.51
2018-09-02T14:44:29.900Z,50.34
2018-09-02T14:46:30.255Z,50.02
2018-09-02T14:47:37.751Z,49.73
2018-09-02T14:48:23.736Z,50.00
2018-09-02T14:50:24.618Z,50.00
2018-09-02T14:52:22.770Z,50.39
2018-09-02T14:53:23.245Z,50.29
2018-09-02T14:55:22.783Z,51.21
2018-09-02T14:56:24.808Z,51.02
2018-09-02T14:57:23.295Z,51.61
2018-09-02T14:58:23.332Z,51.78
2018-09-02T14:59:37.177Z,52.04
2018-09-02T15:00:23.267Z,52.44
2018-09-02T15:02:55.786Z,52.60
2018-09-02T15:03:56.784Z,52.80
2018-09-02T15:04:56.663Z,52.67
2018-09-02T15:05:55.797Z,53.45
2018-09-02T15:07:59.177Z,54.21
2018-09-02T15:08:56.404Z,54.08
2018-09-02T15:09:57.642Z,54.28
2018-09-02T15:10:57.573Z,54.66
2018-09-02T15:11:55.707Z,54.96
2018-09-02T15:13:00.602Z,54.18
2018-09-02T15:13:55.745Z,54.76
2018-09-02T15:15:18.676Z,54.76
2018-09-02T15:15:55.531Z,55.22
2018-09-02T15:16:56.637Z,55.61
2018-09-02T15:18:55.793Z,55.88
2018-09-02T15:19:55.694Z,55.41
2018-09-02T15:20:55.687Z,55.05
2018-09-02T15:21:56.105Z,55.21
2018-09-02T15:22:55.734Z,54.33
2018-09-02T15:24:00.094Z,54.26
2018-09-02T15:24:56.322Z,54.06
2018-09-02T15:25:56.121Z,54.09
2018-09-02T15:26:55.743Z,53.99
2018-09-02T15:27:55.688Z,54.36
2018-09-02T15:28:55.813Z,54.85
2018-09-02T15:29:55.783Z,54.23
2018-09-02T15:30:55.698Z,54.91
2018-09-02T15:31:57.508Z,55.27
2018-09-02T15:33:03.394Z,55.25
2018-09-02T15:35:05.099Z,55.58
2018-09-02T15:35:49.047Z,55.88
2018-09-02T15:36:49.155Z,56.34
2018-09-02T15:37:50.735Z,57.01
2018-09-02T15:38:50.581Z,56.92
2018-09-02T15:40:53.518Z,57.18
2018-09-02T15:41:50.307Z,57.67
2018-09-02T15:42:56.660Z,57.37
2018-09-02T15:45:26.654Z,58.31
2018-09-02T15:46:18.809Z,58.70
2018-09-02T15:49:16.635Z,58.77
2018-09-02T15:50:13.683Z,59.45
2018-09-02T15:51:13.542Z,59.13
2018-09-02T15:52:14.712Z,59.81
2018-09-02T15:53:43.726Z,59.71
2018-09-02T15:54:12.290Z,59.61
2018-09-02T15:56:57.906Z,60.07
2018-09-02T15:57:55.896Z,60.75
2018-09-02T15:59:51.294Z,60.94
2018-09-02T16:00:53.724Z,60.85
2018-09-02T16:02:42.684Z,60.91
2018-09-02T16:03:42.231Z,61.30